LVCQD SRDR-SADF
Flight info
| Callsign | LVCQD |
|---|---|
| Flight time | N/A |
| Altitude | 2000 |
| Route | DCT |
| Aircraft | C172/L-S/C |
Departure
| Time | N/A |
|---|---|
| Airport | SRDR |
Arrival
| Time | 2026-04-26 14:12 |
|---|---|
| Airport | San Fernando Airport (SADF) |
| Time | Latitude | Longitude | Altitude | Speed | Heading |
|---|---|---|---|---|---|
| 2026-04-26 13:45 | -34.68360 | -59.03289 | 96 ft | 0 kts | 310° |
| 2026-04-26 13:46 | -34.68363 | -59.03300 | 94 ft | 5 kts | 208° |
| 2026-04-26 13:47 | -34.68413 | -59.03278 | 96 ft | 11 kts | 157° |
| 2026-04-26 13:47 | -34.68503 | -59.03233 | 97 ft | 16 kts | 161° |
| 2026-04-26 13:47 | -34.68610 | -59.03184 | 97 ft | 10 kts | 152° |
| 2026-04-26 13:47 | -34.68642 | -59.03174 | 97 ft | 0 kts | 212° |
| 2026-04-26 13:54 | -34.68645 | -59.03176 | 97 ft | 4 kts | 219° |
| 2026-04-26 13:55 | -34.68656 | -59.03251 | 99 ft | 8 kts | 300° |
| 2026-04-26 13:55 | -34.68594 | -59.03299 | 100 ft | 33 kts | 330° |
| 2026-04-26 13:55 | -34.67584 | -59.03859 | 521 ft | 77 kts | 326° |
| 2026-04-26 13:56 | -34.67047 | -59.04120 | 741 ft | 89 kts | 331° |
| 2026-04-26 13:56 | -34.66502 | -59.04432 | 982 ft | 92 kts | 322° |
| 2026-04-26 13:56 | -34.65889 | -59.04824 | 1135 ft | 95 kts | 323° |
| 2026-04-26 13:56 | -34.65318 | -59.05172 | 1208 ft | 100 kts | 323° |
| 2026-04-26 13:57 | -34.64652 | -59.05406 | 1337 ft | 109 kts | 1° |
| 2026-04-26 13:57 | -34.64047 | -59.04766 | 1407 ft | 125 kts | 63° |
| 2026-04-26 13:57 | -34.63758 | -59.03734 | 1375 ft | 133 kts | 82° |
| 2026-04-26 13:57 | -34.63589 | -59.02603 | 1317 ft | 139 kts | 87° |
| 2026-04-26 13:58 | -34.63462 | -59.01433 | 1329 ft | 137 kts | 89° |
| 2026-04-26 13:58 | -34.63394 | -59.00304 | 1410 ft | 130 kts | 93° |
| 2026-04-26 13:58 | -34.63397 | -58.99228 | 1421 ft | 133 kts | 103° |
| 2026-04-26 13:58 | -34.63452 | -58.98108 | 1492 ft | 131 kts | 101° |
| 2026-04-26 13:59 | -34.63534 | -58.97017 | 1596 ft | 130 kts | 103° |
| 2026-04-26 13:59 | -34.63590 | -58.95913 | 1651 ft | 132 kts | 102° |
| 2026-04-26 13:59 | -34.63633 | -58.94791 | 1685 ft | 133 kts | 99° |
| 2026-04-26 14:00 | -34.63605 | -58.91463 | 1943 ft | 132 kts | 93° |
| 2026-04-26 14:00 | -34.63520 | -58.90346 | 1946 ft | 133 kts | 90° |
| 2026-04-26 14:00 | -34.63443 | -58.89603 | 1956 ft | 135 kts | 88° |
| 2026-04-26 14:01 | -34.63241 | -58.88078 | 1974 ft | 138 kts | 85° |
| 2026-04-26 14:01 | -34.63051 | -58.86929 | 1962 ft | 141 kts | 83° |
| 2026-04-26 14:01 | -34.62826 | -58.85753 | 1859 ft | 145 kts | 82° |
| 2026-04-26 14:01 | -34.62597 | -58.84561 | 1748 ft | 146 kts | 78° |
| 2026-04-26 14:02 | -34.62329 | -58.83408 | 1819 ft | 135 kts | 77° |
| 2026-04-26 14:02 | -34.62071 | -58.82308 | 1817 ft | 136 kts | 78° |
| 2026-04-26 14:02 | -34.61838 | -58.81176 | 1816 ft | 140 kts | 84° |
| 2026-04-26 14:02 | -34.61703 | -58.80038 | 1926 ft | 134 kts | 87° |
| 2026-04-26 14:03 | -34.61580 | -58.78919 | 1970 ft | 136 kts | 88° |
| 2026-04-26 14:03 | -34.61427 | -58.77717 | 1808 ft | 151 kts | 84° |
| 2026-04-26 14:03 | -34.61246 | -58.76487 | 1828 ft | 145 kts | 83° |
| 2026-04-26 14:03 | -34.61006 | -58.75299 | 1827 ft | 145 kts | 76° |
| 2026-04-26 14:04 | -34.60650 | -58.74144 | 1793 ft | 145 kts | 66° |
| 2026-04-26 14:04 | -34.60085 | -58.73140 | 1772 ft | 144 kts | 45° |
| 2026-04-26 14:04 | -34.59310 | -58.72425 | 1808 ft | 138 kts | 26° |
| 2026-04-26 14:04 | -34.58481 | -58.71825 | 1793 ft | 140 kts | 28° |
| 2026-04-26 14:05 | -34.57669 | -58.71162 | 1804 ft | 140 kts | 32° |
| 2026-04-26 14:05 | -34.56887 | -58.70444 | 1783 ft | 142 kts | 35° |
| 2026-04-26 14:05 | -34.56143 | -58.69721 | 1804 ft | 141 kts | 35° |
| 2026-04-26 14:05 | -34.55391 | -58.68974 | 1787 ft | 141 kts | 37° |
| 2026-04-26 14:06 | -34.54634 | -58.68249 | 1815 ft | 138 kts | 32° |
| 2026-04-26 14:06 | -34.53847 | -58.67599 | 1860 ft | 137 kts | 32° |
| 2026-04-26 14:06 | -34.53078 | -58.66896 | 1887 ft | 140 kts | 35° |
| 2026-04-26 14:06 | -34.52293 | -58.66187 | 1894 ft | 141 kts | 31° |
| 2026-04-26 14:07 | -34.51471 | -58.65501 | 1869 ft | 144 kts | 30° |
| 2026-04-26 14:07 | -34.50647 | -58.64817 | 1894 ft | 143 kts | 32° |
| 2026-04-26 14:07 | -34.49867 | -58.64086 | 1918 ft | 140 kts | 36° |
| 2026-04-26 14:07 | -34.49110 | -58.63324 | 1904 ft | 143 kts | 33° |
| 2026-04-26 14:08 | -34.48343 | -58.62592 | 1940 ft | 140 kts | 32° |
| 2026-04-26 14:08 | -34.47565 | -58.61894 | 1886 ft | 137 kts | 29° |
| 2026-04-26 14:08 | -34.46730 | -58.61362 | 1720 ft | 131 kts | 8° |
| 2026-04-26 14:08 | -34.45857 | -58.61059 | 1557 ft | 131 kts | 15° |
| 2026-04-26 14:09 | -34.45042 | -58.60558 | 1367 ft | 134 kts | 27° |
| 2026-04-26 14:09 | -34.44308 | -58.59897 | 1233 ft | 132 kts | 40° |
| 2026-04-26 14:09 | -34.43672 | -58.59158 | 1096 ft | 123 kts | 40° |
| 2026-04-26 14:09 | -34.43114 | -58.58465 | 968 ft | 110 kts | 41° |
| 2026-04-26 14:10 | -34.42609 | -58.57815 | 902 ft | 104 kts | 47° |
| 2026-04-26 14:10 | -34.42534 | -58.56965 | 751 ft | 101 kts | 125° |
| 2026-04-26 14:10 | -34.42970 | -58.56542 | 616 ft | 73 kts | 188° |
| 2026-04-26 14:10 | -34.43427 | -58.56715 | 505 ft | 70 kts | 225° |
| 2026-04-26 14:11 | -34.44142 | -58.57503 | 301 ft | 67 kts | 233° |
| 2026-04-26 14:11 | -34.44477 | -58.57935 | 204 ft | 72 kts | 227° |
| 2026-04-26 14:11 | -34.44837 | -58.58356 | 82 ft | 70 kts | 231° |
| 2026-04-26 14:12 | -34.45152 | -58.58726 | 20 ft | 54 kts | 229° |
| 2026-04-26 14:12 | -34.45371 | -58.58988 | 18 ft | 36 kts | 224° |
| 2026-04-26 14:12 | -34.45524 | -58.59171 | 18 ft | 27 kts | 227° |
| 2026-04-26 14:12 | -34.45644 | -58.59305 | 18 ft | 13 kts | 204° |
| 2026-04-26 14:13 | -34.45722 | -58.59276 | 18 ft | 0 kts | 147° |
| 2026-04-26 14:13 | -34.45721 | -58.59276 | 18 ft | 0 kts | 147° |
| 2026-04-26 14:13 | -34.45767 | -58.59242 | 18 ft | 14 kts | 149° |
| 2026-04-26 14:14 | -34.45844 | -58.59189 | 18 ft | 10 kts | 149° |
| 2026-04-26 14:14 | -34.45875 | -58.59138 | 18 ft | 10 kts | 69° |
| 2026-04-26 14:14 | -34.45844 | -58.59060 | 18 ft | 8 kts | 62° |
| 2026-04-26 14:14 | -34.45821 | -58.59047 | 18 ft | 3 kts | 327° |
| 2026-04-26 14:15 | -34.45820 | -58.59048 | 18 ft | 0 kts | 326° |